Wednesday, 8 June 2011

Time for a photo shoot


The good news is that the weather looks good. The bad news is that just as soon as it looks good it starts to look wet too. Best take a brolly…

TAF EGLL 080459Z 0806/0912 23009KT 9999 FEW030 PROB40 TEMPO 0809/0818 24015G25KT 7000 SHRA PROB30 TEMPO 0909/0912 8000 SHRA=

Edit. While there were a couple of showers around the weather turned out fine, if a little blustery!

No comments: